Terminal Aerodrome Forecast
Issued by NWS

Home | Current Version | Previous Version | Text Only | Print | Product List | Glossary On
Versions: 1 2 3 4 5 6 7 8 9 10 11 12 13 14 15 16 17 18
000
FTUS42 KTBW 251127
TAFPGD
TAF
KPGD 251127Z 2512/2612 VRB03KT 1SM BR BKN005
      TEMPO 2512/2514 1/4SM FG OVC002
     FM251500 05005KT P6SM FEW020 SCT250
     FM251800 32005KT P6SM SCT040 SCT250
     FM260100 VRB03KT P6SM FEW040 SCT100=

USA.gov is the U.S. government's official web portal to all federal, state and local government web resources and services.